Strona główna
METAR-TAF:

METAR-TAF

Lotnisko :

Pontoise, Francja

Szerokość geograficzna: 49-05-48N, Długość geograficzna: 002-02-27E, wysokość: 99 m

Aktualna obserwacja pogody

Raport powstał 19 minut temu, godzina 09:00 UTC
Wiatr 5 kt od zachodnio-północny zachód, zmienny między zachód i północno-północny zachód
Temperatura 15°C
Wilgotność 67%
Ciśnienie 1009 hPa
Widzialność 10 km lub więcej
Rozproszone chmury na wysokości 2300 ft
Rozproszone chmury na wysokości 3400 ft
Przerywane chmury na wysokości 24000 ft

METAR: LFPT 070900Z AUTO 30005KT 260V340 9999 SCT023 SCT034 BKN240 15/09 Q1009

czas: 11:19 (09:19 UTC)


TAF: brakujący

Obserwacja i prognoza pogody dla ponad 4000 lotnisk (raport METAR i TAF).

Dostępne stacje oznaczono żółtymi i czerwonymi punktami na mapie.

Najedź kursorem aby zobaczyć nazwę stacji.

Kliknij aby zobaczyć obserwacje i prognozy pogody.

Aby zmienić mapę: kliknij na zielony przycisk z czarnym krzyżykiem, aby powiększyć; na zielony przycisk z myślnikiem, aby pomniejszyć; na zielone strzałki, aby przejść do map sąsiednich.


METAR-TAF: